Route Details

Aircraft Information
Group: Trans-Pacific Ops
Types: B744, MD11
Route Data
Distance: 3403nm
Duration: 6h 54m
Origin METAR: YSSY 072330Z 09008KT 9999 -SHRA SCT028 BKN040 24/18 Q1015
Dest. METAR: WSSS 072330Z 34004KT 8000 FEW015 BKN300 25/24 Q1009 NOSIG
Freight Data
(for Feb 7, 2023)
Load Factor:
46%
Manifested Cargo: 110,548lbs
Financial History
Total Freight: 697,380lbs
Average Load: 0lbs/flt
Fuel Used: 632,462lbs
Avg. Fuel Used: 0lbs/flt
Fuel Expense: $332,108
Avg. Fuel Expense: $0
Avg. Fuel Cost: $0/lbs
Total Gross Income: $3,286,178
Pilot Pay: $906
Total Expenses: $588,310
Total Revenue: $2,356,800
Average Revenue: $0

Capitol Logistics 803




YSSY
Kingsford Smith International Airport
Sydney, AU
WSSS
Changi International Airport
Singapore, SG